createdAt,value
2023-01-03T00:04:29.871Z,1.40
2023-01-03T00:09:31.543Z,1.30
2023-01-03T00:14:35.908Z,1.55
2023-01-03T00:19:40.632Z,1.33
2023-01-03T00:24:43.521Z,1.17
2023-01-03T00:29:45.214Z,1.25
2023-01-03T00:34:47.426Z,1.00
2023-01-03T00:39:49.125Z,1.10
2023-01-03T00:44:50.849Z,0.95
2023-01-03T00:49:52.435Z,0.90
2023-01-03T00:54:54.061Z,1.05
2023-01-03T00:59:55.633Z,0.80
2023-01-03T01:04:57.207Z,0.88
2023-01-03T01:09:58.815Z,0.82
2023-01-03T01:15:00.490Z,1.10
2023-01-03T01:20:02.085Z,0.90
2023-01-03T01:25:03.969Z,1.02
2023-01-03T01:30:06.339Z,1.00
2023-01-03T01:35:08.331Z,0.80
2023-01-03T01:40:10.573Z,0.93
2023-01-03T01:45:15.062Z,1.02
2023-01-03T01:50:22.592Z,1.00
2023-01-03T01:55:28.510Z,0.90
2023-01-03T02:00:30.369Z,1.02
2023-01-03T02:05:35.153Z,1.17
2023-01-03T02:11:01.918Z,1.10
2023-01-03T02:16:18.672Z,1.27
2023-01-03T02:21:58.314Z,1.20
2023-01-03T02:27:06.076Z,1.30
2023-01-03T02:32:10.561Z,1.60
2023-01-03T02:37:35.043Z,1.80
2023-01-03T02:42:57.851Z,1.60
2023-01-03T02:48:20.705Z,1.63
2023-01-03T02:53:29.595Z,1.60
2023-01-03T02:58:36.130Z,2.00
2023-01-03T03:03:39.035Z,1.70
2023-01-03T03:08:44.566Z,1.70
2023-01-03T03:13:58.375Z,1.70
2023-01-03T03:19:03.164Z,1.70
2023-01-03T03:24:30.635Z,1.90
2023-01-03T03:29:33.640Z,1.80
2023-01-03T03:34:38.291Z,2.17
2023-01-03T03:39:58.966Z,2.20
2023-01-03T03:45:08.657Z,1.92
2023-01-03T03:50:33.043Z,2.08
2023-01-03T03:55:46.035Z,2.70
2023-01-03T04:00:52.257Z,2.47
2023-01-03T04:06:09.007Z,4.78
2023-01-03T04:11:10.746Z,3.67
2023-01-03T04:16:12.777Z,17.02
2023-01-03T04:21:20.472Z,5.72
2023-01-03T04:26:22.657Z,3.88
2023-01-03T04:31:25.189Z,6.00
2023-01-03T04:36:26.861Z,3.78
2023-01-03T04:41:28.473Z,3.50
2023-01-03T04:46:38.517Z,3.58
2023-01-03T04:51:40.069Z,4.07
2023-01-03T04:56:41.609Z,3.97
2023-01-03T05:01:52.304Z,3.92
2023-01-03T05:07:00.165Z,3.00
2023-01-03T05:12:01.719Z,2.95
2023-01-03T05:17:03.434Z,2.88
2023-01-03T05:22:23.639Z,3.50
2023-01-03T05:27:25.219Z,3.75
2023-01-03T05:32:28.094Z,3.78
2023-01-03T05:37:29.650Z,3.70
2023-01-03T05:42:31.241Z,3.97
2023-01-03T05:47:32.956Z,3.60
2023-01-03T05:52:34.618Z,4.38
2023-01-03T05:57:36.308Z,4.30
2023-01-03T06:02:38.200Z,4.30
2023-01-03T06:07:39.800Z,3.90
2023-01-03T06:12:41.932Z,4.00
2023-01-03T06:17:57.742Z,4.07
2023-01-03T06:22:59.693Z,16.08
2023-01-03T06:28:01.374Z,7.13
2023-01-03T06:33:03.432Z,5.68
2023-01-03T06:38:05.095Z,5.45
2023-01-03T06:43:06.655Z,4.32
2023-01-03T06:48:29.291Z,4.85
2023-01-03T06:53:37.061Z,4.25
2023-01-03T06:58:38.783Z,3.35
2023-01-03T07:03:40.357Z,3.70
2023-01-03T07:08:48.115Z,3.47
2023-01-03T07:13:59.867Z,3.45
2023-01-03T07:19:04.247Z,3.75
2023-01-03T07:24:07.216Z,4.10
2023-01-03T07:29:10.478Z,5.65
2023-01-03T07:34:12.184Z,4.28
2023-01-03T07:39:13.856Z,3.70
2023-01-03T07:44:15.409Z,4.05
2023-01-03T07:49:16.960Z,4.00
2023-01-03T07:54:18.577Z,2.70
2023-01-03T07:59:20.119Z,2.83
2023-01-03T08:04:21.829Z,2.58
2023-01-03T08:09:43.631Z,2.92
2023-01-03T08:14:45.372Z,4.30
2023-01-03T08:19:46.964Z,4.47
2023-01-03T08:24:48.513Z,4.72
2023-01-03T08:29:50.088Z,4.78
2023-01-03T08:34:51.883Z,5.60
2023-01-03T08:39:59.257Z,5.93
2023-01-03T08:45:06.413Z,5.22
2023-01-03T08:50:09.558Z,4.82
2023-01-03T08:55:11.138Z,5.28
2023-01-03T09:00:13.188Z,5.40
2023-01-03T09:05:16.963Z,5.10
2023-01-03T09:10:18.675Z,4.18
2023-01-03T09:15:20.769Z,4.60
2023-01-03T09:20:22.418Z,4.30
2023-01-03T09:25:24.108Z,5.28
2023-01-03T09:30:25.744Z,5.60
2023-01-03T09:35:27.395Z,6.03
2023-01-03T09:40:31.757Z,7.25
2023-01-03T09:45:34.826Z,7.32
2023-01-03T09:51:14.102Z,6.13
2023-01-03T09:56:19.513Z,5.63
2023-01-03T10:01:52.344Z,5.80
2023-01-03T10:07:38.810Z,5.72
2023-01-03T10:13:25.876Z,4.38
2023-01-03T10:18:47.510Z,4.93
2023-01-03T10:23:49.834Z,4.20
2023-01-03T10:28:51.955Z,3.53
2023-01-03T10:33:53.548Z,3.17
2023-01-03T10:39:08.423Z,2.83
2023-01-03T10:44:24.543Z,3.38
2023-01-03T10:49:31.535Z,4.13
2023-01-03T10:54:49.095Z,3.70
2023-01-03T10:59:50.692Z,4.13
2023-01-03T11:05:12.416Z,4.30
2023-01-03T11:10:18.797Z,3.30
2023-01-03T11:15:38.813Z,3.50
2023-01-03T11:20:49.721Z,2.63
2023-01-03T11:26:00.209Z,2.20
2023-01-03T11:31:11.377Z,2.17
2023-01-03T11:36:42.403Z,2.70
2023-01-03T11:42:21.103Z,1.50
2023-01-03T11:47:28.527Z,1.55
2023-01-03T11:52:43.128Z,1.20
2023-01-03T11:57:47.654Z,1.50
2023-01-03T12:03:09.604Z,4.57
2023-01-03T12:09:01.216Z,2.90
2023-01-03T12:14:18.656Z,1.70
2023-01-03T12:19:43.142Z,1.42
2023-01-03T12:25:05.175Z,0.90
2023-01-03T12:30:20.898Z,1.33
2023-01-03T12:35:38.002Z,3.35
2023-01-03T12:40:39.625Z,1.30
2023-01-03T12:45:53.600Z,1.02
2023-01-03T12:50:55.336Z,0.70
2023-01-03T12:56:18.825Z,0.80
2023-01-03T13:01:58.282Z,0.75
2023-01-03T13:07:11.393Z,0.70
2023-01-03T13:12:19.542Z,0.70
2023-01-03T13:17:24.652Z,0.75
2023-01-03T13:22:48.082Z,0.82
2023-01-03T13:27:51.275Z,0.80
2023-01-03T13:32:55.025Z,0.80
2023-01-03T13:37:59.612Z,0.63
2023-01-03T13:43:22.028Z,0.70
2023-01-03T13:48:27.876Z,0.60
2023-01-03T13:53:31.306Z,0.70
2023-01-03T13:58:46.953Z,0.70
2023-01-03T14:03:54.335Z,0.90
2023-01-03T14:09:11.535Z,0.75
2023-01-03T14:14:16.847Z,0.70
2023-01-03T14:19:37.796Z,0.70
2023-01-03T14:24:57.054Z,0.80
2023-01-03T14:29:58.746Z,0.70
2023-01-03T14:35:00.699Z,0.82
2023-01-03T14:40:06.839Z,0.70
2023-01-03T14:45:17.837Z,0.60
2023-01-03T14:50:25.700Z,0.93
2023-01-03T14:55:30.260Z,0.90
2023-01-03T15:00:36.409Z,0.73
2023-01-03T15:05:43.408Z,1.00
2023-01-03T15:10:51.280Z,0.80
2023-01-03T15:15:58.883Z,0.95
2023-01-03T15:21:02.081Z,1.40
2023-01-03T15:26:05.832Z,1.10
2023-01-03T15:31:32.603Z,1.10
2023-01-03T15:36:34.209Z,1.35
2023-01-03T15:42:34.602Z,1.30
2023-01-03T15:47:23.499Z,1.38
2023-01-03T15:52:25.822Z,1.60
2023-01-03T15:57:30.623Z,1.63
2023-01-03T16:02:32.490Z,1.98
2023-01-03T16:07:34.172Z,2.30
2023-01-03T16:12:38.113Z,3.15
2023-01-03T16:17:40.312Z,2.90
2023-01-03T16:22:57.581Z,2.30
2023-01-03T16:28:05.721Z,2.10
2023-01-03T16:33:19.742Z,2.35
2023-01-03T16:38:23.283Z,2.80
2023-01-03T16:43:26.547Z,2.17
2023-01-03T16:48:38.018Z,3.67
2023-01-03T16:53:40.783Z,3.40
2023-01-03T16:58:42.521Z,9.48
2023-01-03T17:03:44.155Z,40.45
2023-01-03T17:08:45.824Z,20.52
2023-01-03T17:13:48.277Z,10.65
2023-01-03T17:18:50.890Z,13.32
2023-01-03T17:23:57.568Z,9.75
2023-01-03T17:29:01.571Z,9.20
2023-01-03T17:34:19.679Z,6.95
2023-01-03T17:39:22.084Z,6.57
2023-01-03T17:44:23.727Z,5.80
2023-01-03T17:49:25.369Z,7.47
2023-01-03T17:54:35.225Z,8.55
2023-01-03T17:59:36.773Z,9.20
2023-01-03T18:05:13.780Z,7.75
2023-01-03T18:10:00.292Z,6.88
2023-01-03T18:15:01.970Z,5.65
2023-01-03T18:20:03.756Z,6.70
2023-01-03T18:25:06.098Z,6.85
2023-01-03T18:30:14.267Z,6.18
2023-01-03T18:35:24.247Z,5.25
2023-01-03T18:40:29.428Z,6.38
2023-01-03T18:45:31.091Z,6.03
2023-01-03T18:50:33.521Z,5.38
2023-01-03T18:55:35.493Z,6.25
2023-01-03T19:00:37.090Z,5.28
2023-01-03T19:05:38.689Z,5.07
2023-01-03T19:10:40.242Z,6.93
2023-01-03T19:15:41.852Z,7.13
2023-01-03T19:20:43.466Z,7.32
2023-01-03T19:25:45.270Z,7.32
2023-01-03T19:30:46.969Z,6.90
2023-01-03T19:35:48.917Z,8.02
2023-01-03T19:40:50.453Z,6.82
2023-01-03T19:45:52.073Z,7.03
2023-01-03T19:50:53.751Z,8.32
2023-01-03T19:55:55.392Z,6.32
2023-01-03T20:00:57.203Z,7.10
2023-01-03T20:05:59.115Z,6.80
2023-01-03T20:11:02.067Z,5.30
2023-01-03T20:16:04.107Z,4.07
2023-01-03T20:21:27.458Z,4.10
2023-01-03T20:26:32.261Z,4.28
2023-01-03T20:31:33.936Z,4.43
2023-01-03T20:36:49.200Z,4.55
2023-01-03T20:41:51.311Z,6.32
2023-01-03T20:46:53.407Z,5.63
2023-01-03T20:51:55.116Z,5.68
2023-01-03T20:56:56.683Z,6.15
2023-01-03T21:01:58.445Z,6.03
2023-01-03T21:07:00.349Z,5.70
2023-01-03T21:12:03.506Z,5.15
2023-01-03T21:17:05.358Z,14.45
2023-01-03T21:22:17.212Z,11.68
2023-01-03T21:27:18.956Z,9.88
2023-01-03T21:32:22.929Z,7.65
2023-01-03T21:37:24.499Z,7.38
2023-01-03T21:42:44.806Z,6.65
2023-01-03T21:47:46.413Z,6.38
2023-01-03T21:52:48.182Z,5.43
2023-01-03T21:57:50.461Z,4.70
2023-01-03T22:03:10.828Z,5.90
2023-01-03T22:08:12.569Z,6.28
2023-01-03T22:13:14.163Z,8.07
2023-01-03T22:18:15.783Z,10.65
2023-01-03T22:23:19.127Z,13.52
2023-01-03T22:28:20.719Z,11.75
2023-01-03T22:33:22.319Z,10.15
2023-01-03T22:38:23.870Z,9.70
2023-01-03T22:43:25.429Z,9.40
2023-01-03T22:48:27.258Z,8.57
2023-01-03T22:53:28.819Z,9.02
2023-01-03T22:58:30.776Z,9.65
2023-01-03T23:03:32.406Z,11.25
2023-01-03T23:08:34.994Z,11.13
2023-01-03T23:13:36.520Z,11.40
2023-01-03T23:18:38.089Z,9.93
2023-01-03T23:23:39.693Z,9.82
2023-01-03T23:28:41.295Z,7.55
2023-01-03T23:33:42.895Z,7.95
2023-01-03T23:38:44.454Z,7.00
2023-01-03T23:43:46.122Z,7.97
2023-01-03T23:48:48.669Z,7.85
2023-01-03T23:53:50.478Z,7.85
2023-01-03T23:58:52.816Z,6.40
